createdAt,value
2018-08-18T00:00:18.830Z,18.70
2018-08-18T00:02:47.888Z,18.70
2018-08-18T00:05:17.831Z,18.68
2018-08-18T00:07:46.864Z,18.69
2018-08-18T00:10:18.440Z,18.66
2018-08-18T00:12:47.541Z,18.63
2018-08-18T00:15:16.475Z,18.62
2018-08-18T00:17:45.415Z,18.55
2018-08-18T00:20:17.063Z,18.56
2018-08-18T00:22:46.420Z,18.49
2018-08-18T00:25:15.385Z,18.49
2018-08-18T00:27:44.373Z,18.49
2018-08-18T00:30:18.586Z,18.49
2018-08-18T00:32:47.627Z,18.50
2018-08-18T00:35:16.580Z,18.52
2018-08-18T00:37:45.765Z,18.53
2018-08-18T00:40:14.806Z,18.53
2018-08-18T00:42:43.785Z,18.54
2018-08-18T00:45:13.744Z,18.54
2018-08-18T00:47:42.880Z,18.54
2018-08-18T00:50:16.136Z,18.55
2018-08-18T00:52:45.808Z,18.58
2018-08-18T00:55:14.740Z,18.56
2018-08-18T00:57:43.721Z,18.54
2018-08-18T01:00:12.688Z,18.50
2018-08-18T01:02:41.631Z,18.49
2018-08-18T01:05:10.603Z,18.48
2018-08-18T01:07:39.652Z,18.46
2018-08-18T01:10:08.668Z,18.45
2018-08-18T01:12:37.712Z,18.44
2018-08-18T01:15:09.041Z,18.44
2018-08-18T01:17:38.008Z,18.41
2018-08-18T01:20:07.471Z,18.42
2018-08-18T01:22:36.427Z,18.46
2018-08-18T01:25:05.897Z,18.45
2018-08-18T01:27:43.684Z,18.45
2018-08-18T01:30:12.684Z,18.47
2018-08-18T01:32:41.616Z,18.47
2018-08-18T01:35:11.254Z,18.45
2018-08-18T01:37:40.251Z,18.46
2018-08-18T01:40:09.317Z,18.42
2018-08-18T01:42:38.247Z,18.46
2018-08-18T01:45:07.357Z,18.46
2018-08-18T01:47:36.312Z,18.47
2018-08-18T01:50:10.475Z,18.48
2018-08-18T01:52:39.408Z,18.48
2018-08-18T01:55:09.064Z,18.48
2018-08-18T01:57:38.008Z,18.48
2018-08-18T02:00:28.241Z,18.49
2018-08-18T02:02:57.203Z,18.48
2018-08-18T02:05:27.472Z,18.47
2018-08-18T02:07:56.488Z,18.49
2018-08-18T02:10:25.509Z,18.46
2018-08-18T02:13:01.932Z,18.47
2018-08-18T02:15:31.273Z,18.45
2018-08-18T02:18:00.294Z,18.44
2018-08-18T02:20:29.243Z,18.45
2018-08-18T02:22:58.317Z,18.45
2018-08-18T02:25:27.252Z,18.45
2018-08-18T02:27:56.176Z,18.47
2018-08-18T02:30:25.184Z,18.46
2018-08-18T02:32:54.195Z,18.45
2018-08-18T02:35:24.197Z,18.43
2018-08-18T02:37:53.305Z,18.39
2018-08-18T02:40:22.321Z,18.39
2018-08-18T02:42:51.332Z,18.36
2018-08-18T02:45:20.287Z,18.32
2018-08-18T02:47:53.788Z,18.29
2018-08-18T02:50:22.728Z,18.27
2018-08-18T02:52:51.667Z,18.23
2018-08-18T02:55:20.617Z,18.15
2018-08-18T02:57:49.616Z,18.07
2018-08-18T03:00:24.937Z,18.04
2018-08-18T03:02:53.993Z,18.01
2018-08-18T03:05:22.996Z,17.99
2018-08-18T03:07:52.944Z,17.96
2018-08-18T03:10:26.942Z,17.92
2018-08-18T03:12:58.088Z,17.91
2018-08-18T03:16:06.384Z,17.89
2018-08-18T03:18:47.641Z,17.88
2018-08-18T03:21:16.976Z,17.84
2018-08-18T03:23:57.620Z,17.84
2018-08-18T03:26:30.672Z,17.87
2018-08-18T03:28:59.737Z,17.78
2018-08-18T03:31:28.756Z,17.81
2018-08-18T03:33:57.681Z,17.80
2018-08-18T03:36:37.919Z,17.78
2018-08-18T03:39:09.897Z,17.80
2018-08-18T03:41:38.849Z,17.81
2018-08-18T03:44:07.850Z,17.81
2018-08-18T03:46:36.801Z,17.90
2018-08-18T03:49:05.777Z,17.95
2018-08-18T03:51:39.744Z,18.03
2018-08-18T03:54:08.696Z,18.13
2018-08-18T03:56:37.754Z,18.23
2018-08-18T03:59:06.720Z,18.31
2018-08-18T04:01:53.240Z,18.41
2018-08-18T04:04:23.385Z,18.50
2018-08-18T04:06:53.753Z,18.61
2018-08-18T04:09:26.985Z,18.69
2018-08-18T04:11:57.585Z,18.72
2018-08-18T04:14:31.593Z,18.81
2018-08-18T04:17:00.649Z,18.89
2018-08-18T04:19:29.672Z,18.97
2018-08-18T04:21:58.659Z,19.04
2018-08-18T04:24:34.060Z,19.13
2018-08-18T04:27:03.382Z,19.33
2018-08-18T04:29:32.460Z,19.93
2018-08-18T04:32:02.214Z,21.00
2018-08-18T04:34:31.168Z,21.89
2018-08-18T04:37:02.141Z,22.51
2018-08-18T04:39:31.089Z,23.14
2018-08-18T04:42:00.167Z,24.09
2018-08-18T04:44:29.171Z,24.94
2018-08-18T04:46:58.220Z,25.95
2018-08-18T04:49:27.249Z,26.61
2018-08-18T04:51:56.200Z,27.05
2018-08-18T04:54:25.224Z,27.51
2018-08-18T04:56:54.297Z,27.74
2018-08-18T04:59:24.394Z,28.09
2018-08-18T05:01:53.344Z,28.20
2018-08-18T05:04:22.376Z,28.23
2018-08-18T05:06:51.413Z,28.65
2018-08-18T05:09:20.426Z,29.19
2018-08-18T05:11:49.498Z,29.54
2018-08-18T05:14:18.501Z,30.06
2018-08-18T05:16:47.580Z,30.27
2018-08-18T05:19:16.647Z,30.79
2018-08-18T05:21:45.464Z,31.00
2018-08-18T05:24:22.628Z,31.40
2018-08-18T05:26:52.644Z,32.23
2018-08-18T05:29:21.870Z,32.59
2018-08-18T05:31:50.888Z,33.12
2018-08-18T05:34:19.922Z,33.31
2018-08-18T05:36:48.922Z,33.65
2018-08-18T05:39:17.905Z,34.10
2018-08-18T05:41:46.916Z,34.21
2018-08-18T05:44:15.848Z,33.92
2018-08-18T05:46:44.856Z,34.07
2018-08-18T05:49:15.584Z,34.56
2018-08-18T05:51:46.881Z,34.26
2018-08-18T05:54:17.720Z,34.56
2018-08-18T05:56:47.184Z,34.89
2018-08-18T05:59:16.148Z,34.86
2018-08-18T06:01:45.217Z,35.22
2018-08-18T06:04:15.495Z,35.19
2018-08-18T06:06:45.580Z,35.14
2018-08-18T06:09:16.695Z,34.09
2018-08-18T06:11:45.664Z,32.70
2018-08-18T06:14:15.099Z,30.83
2018-08-18T06:16:44.383Z,30.16
2018-08-18T06:19:13.387Z,29.54
2018-08-18T06:21:42.334Z,29.59
2018-08-18T06:24:11.700Z,29.70
2018-08-18T06:26:40.712Z,29.75
2018-08-18T06:29:09.785Z,29.18
2018-08-18T06:31:54.946Z,28.77
2018-08-18T06:34:24.212Z,28.60
2018-08-18T06:36:53.219Z,28.43
2018-08-18T06:39:22.184Z,28.14
2018-08-18T06:41:51.299Z,28.32
2018-08-18T06:44:24.714Z,27.91
2018-08-18T06:46:53.728Z,27.78
2018-08-18T06:49:22.748Z,27.63
2018-08-18T06:51:51.845Z,27.67
2018-08-18T06:54:20.971Z,27.68
2018-08-18T06:56:49.926Z,27.65
2018-08-18T06:59:18.900Z,27.98
2018-08-18T07:01:47.927Z,27.75
2018-08-18T07:04:25.709Z,27.94
2018-08-18T07:06:54.752Z,28.34
2018-08-18T07:09:23.707Z,29.28
2018-08-18T07:11:52.768Z,29.86
2018-08-18T07:14:21.726Z,29.71
2018-08-18T07:16:50.660Z,29.48
2018-08-18T07:19:19.725Z,29.27
2018-08-18T07:21:48.736Z,29.20
2018-08-18T07:24:17.812Z,29.20
2018-08-18T07:26:46.768Z,29.29
2018-08-18T07:29:15.764Z,29.21
2018-08-18T07:31:44.784Z,29.62
2018-08-18T07:34:13.842Z,29.53
2018-08-18T07:36:42.804Z,30.02
2018-08-18T07:39:11.881Z,30.11
2018-08-18T07:41:40.992Z,30.02
2018-08-18T07:44:09.984Z,30.02
2018-08-18T07:46:39.045Z,30.12
2018-08-18T07:49:08.079Z,30.19
2018-08-18T07:51:37.076Z,30.46
2018-08-18T07:54:06.083Z,30.62
2018-08-18T07:56:35.076Z,30.58
2018-08-18T07:59:04.048Z,30.49
2018-08-18T08:01:32.979Z,30.22
2018-08-18T08:04:02.177Z,30.57
2018-08-18T08:06:31.204Z,30.96
2018-08-18T08:09:00.455Z,30.74
2018-08-18T08:11:29.516Z,30.54
2018-08-18T08:13:58.451Z,30.17
2018-08-18T08:16:27.453Z,29.90
2018-08-18T08:18:56.448Z,29.82
2018-08-18T08:21:25.522Z,29.99
2018-08-18T08:23:55.578Z,29.76
2018-08-18T08:26:24.608Z,29.89
2018-08-18T08:28:53.613Z,29.95
2018-08-18T08:31:22.611Z,29.81
2018-08-18T08:33:51.660Z,29.97
2018-08-18T08:36:20.719Z,29.71
2018-08-18T08:38:53.890Z,29.84
2018-08-18T08:41:24.739Z,29.84
2018-08-18T08:43:53.717Z,30.01
2018-08-18T08:46:22.917Z,30.12
2018-08-18T08:48:54.651Z,30.47
2018-08-18T08:51:23.868Z,30.31
2018-08-18T08:53:54.131Z,30.39
2018-08-18T08:56:39.835Z,30.45
2018-08-18T08:59:08.810Z,30.28
2018-08-18T09:01:37.812Z,30.41
2018-08-18T09:04:06.900Z,30.29
2018-08-18T09:06:40.844Z,30.57
2018-08-18T09:09:09.845Z,30.73
2018-08-18T09:11:38.771Z,30.70
2018-08-18T09:14:08.891Z,30.95
2018-08-18T09:16:37.908Z,31.14
2018-08-18T09:19:06.961Z,31.13
2018-08-18T09:21:41.463Z,31.04
2018-08-18T09:24:10.572Z,31.36
2018-08-18T09:26:44.752Z,31.34
2018-08-18T09:29:14.628Z,31.43
2018-08-18T09:31:44.619Z,31.71
2018-08-18T09:34:13.555Z,31.87
2018-08-18T09:36:43.204Z,32.35
2018-08-18T09:39:23.338Z,32.25
2018-08-18T09:41:52.457Z,32.43
2018-08-18T09:44:31.540Z,32.74
2018-08-18T09:47:00.516Z,32.80
2018-08-18T09:49:30.816Z,33.17
2018-08-18T09:52:00.525Z,33.50
2018-08-18T09:54:29.721Z,33.55
2018-08-18T09:56:59.392Z,33.83
2018-08-18T09:59:29.027Z,33.64
2018-08-18T10:01:58.041Z,33.64
2018-08-18T10:04:27.056Z,33.73
2018-08-18T10:06:56.647Z,33.57
2018-08-18T10:09:25.735Z,33.49
2018-08-18T10:11:54.988Z,33.46
2018-08-18T10:14:23.996Z,33.41
2018-08-18T10:16:52.963Z,33.46
2018-08-18T10:19:21.962Z,33.60
2018-08-18T10:21:51.030Z,33.54
2018-08-18T10:24:19.992Z,33.50
2018-08-18T10:26:54.120Z,33.61
2018-08-18T10:29:24.292Z,33.49
2018-08-18T10:31:58.333Z,33.77
2018-08-18T10:34:28.586Z,33.62
2018-08-18T10:37:06.492Z,33.82
2018-08-18T10:39:36.501Z,34.08
2018-08-18T10:42:08.938Z,34.32
2018-08-18T10:44:37.916Z,34.39
2018-08-18T10:47:11.728Z,34.59
2018-08-18T10:49:51.707Z,35.24
2018-08-18T10:52:32.670Z,35.78
2018-08-18T10:55:04.668Z,36.76
2018-08-18T10:57:45.709Z,36.96
2018-08-18T11:00:19.072Z,37.29
2018-08-18T11:02:50.439Z,37.32
2018-08-18T11:05:19.941Z,36.93
2018-08-18T11:07:57.057Z,37.13
2018-08-18T11:10:27.956Z,37.63
2018-08-18T11:12:56.885Z,37.78
2018-08-18T11:15:26.068Z,37.95
2018-08-18T11:17:55.355Z,37.78
2018-08-18T11:20:26.837Z,37.83
2018-08-18T11:23:04.227Z,38.17
2018-08-18T11:26:04.876Z,38.35
2018-08-18T11:28:33.934Z,38.64
2018-08-18T11:31:03.008Z,39.23
2018-08-18T11:33:39.413Z,39.48
2018-08-18T11:36:09.602Z,39.56
2018-08-18T11:38:38.669Z,39.48
2018-08-18T11:41:09.875Z,39.29
2018-08-18T11:43:46.301Z,39.13
2018-08-18T11:46:15.291Z,39.48
2018-08-18T11:48:44.489Z,39.59
2018-08-18T11:51:13.422Z,39.75
2018-08-18T11:53:54.707Z,39.69
2018-08-18T11:56:23.717Z,40.08
2018-08-18T11:59:03.557Z,39.92
2018-08-18T12:01:36.993Z,40.56
2018-08-18T12:04:06.072Z,40.44
2018-08-18T12:06:35.108Z,40.42
2018-08-18T12:09:05.014Z,40.09
2018-08-18T12:11:34.066Z,40.83
2018-08-18T12:14:03.117Z,40.94
2018-08-18T12:16:32.089Z,40.64
2018-08-18T12:19:01.031Z,40.56
2018-08-18T12:21:34.430Z,40.88
2018-08-18T12:24:03.368Z,41.13
2018-08-18T12:26:32.417Z,41.06
2018-08-18T12:29:01.365Z,41.13
2018-08-18T12:31:30.320Z,41.24
2018-08-18T12:33:59.888Z,41.39
2018-08-18T12:36:29.038Z,41.30
2018-08-18T12:38:58.921Z,41.33
2018-08-18T12:41:27.882Z,41.18
2018-08-18T12:43:58.907Z,40.57
2018-08-18T12:46:39.631Z,41.06
2018-08-18T12:49:08.695Z,40.55
2018-08-18T12:51:37.694Z,41.19
2018-08-18T12:54:06.745Z,40.52
2018-08-18T12:56:35.749Z,41.11
2018-08-18T12:59:04.811Z,41.13
2018-08-18T13:01:44.267Z,41.45
2018-08-18T13:04:14.619Z,40.65
2018-08-18T13:06:45.138Z,40.39
2018-08-18T13:09:15.287Z,39.89
2018-08-18T13:11:45.677Z,39.75
2018-08-18T13:14:17.387Z,40.02
2018-08-18T13:16:46.467Z,40.67
2018-08-18T13:19:17.024Z,40.71
2018-08-18T13:21:46.052Z,41.04
2018-08-18T13:24:15.159Z,40.88
2018-08-18T13:26:44.116Z,40.47
2018-08-18T13:29:13.080Z,39.26
2018-08-18T13:31:42.984Z,38.35
2018-08-18T13:34:13.580Z,37.66
2018-08-18T13:36:43.734Z,36.70
2018-08-18T13:39:17.363Z,35.90
2018-08-18T13:41:47.155Z,35.35
2018-08-18T13:44:37.889Z,34.73
2018-08-18T13:47:06.958Z,34.87
2018-08-18T13:49:35.970Z,35.01
2018-08-18T13:52:05.005Z,35.01
2018-08-18T13:54:34.994Z,34.76
2018-08-18T13:57:04.032Z,34.55
2018-08-18T13:59:47.933Z,34.30
2018-08-18T14:02:17.095Z,34.14
2018-08-18T14:04:46.054Z,33.95
2018-08-18T14:07:15.144Z,33.65
2018-08-18T14:09:48.985Z,33.52
2018-08-18T14:12:18.824Z,33.44
2018-08-18T14:14:48.508Z,33.36
2018-08-18T14:17:19.744Z,33.21
2018-08-18T14:19:49.096Z,33.14
2018-08-18T14:22:19.756Z,33.18
2018-08-18T14:24:48.720Z,33.13
2018-08-18T14:27:20.191Z,33.08
2018-08-18T14:29:49.200Z,33.02
2018-08-18T14:32:23.364Z,32.97
2018-08-18T14:35:02.259Z,32.99
2018-08-18T14:37:31.257Z,33.03
2018-08-18T14:40:00.305Z,33.13
2018-08-18T14:42:29.375Z,33.19
2018-08-18T14:44:59.549Z,33.20
2018-08-18T14:47:28.513Z,33.30
2018-08-18T14:50:12.665Z,33.46
2018-08-18T14:52:42.431Z,33.33
2018-08-18T14:55:11.429Z,32.45
2018-08-18T14:57:46.592Z,31.32
2018-08-18T15:00:15.573Z,30.54
2018-08-18T15:02:44.566Z,29.84
2018-08-18T15:05:13.520Z,28.93
2018-08-18T15:07:46.512Z,27.97
2018-08-18T15:10:30.691Z,27.60
2018-08-18T15:13:00.516Z,27.24
2018-08-18T15:15:30.500Z,26.67
2018-08-18T15:18:05.784Z,26.12
2018-08-18T15:20:36.116Z,25.60
2018-08-18T15:23:05.982Z,25.12
2018-08-18T15:25:35.917Z,24.54
2018-08-18T15:28:06.250Z,24.18
2018-08-18T15:30:36.596Z,23.26
2018-08-18T15:33:05.974Z,22.46
2018-08-18T15:35:38.346Z,22.01
2018-08-18T15:38:08.356Z,21.84
2018-08-18T15:40:37.349Z,21.75
2018-08-18T15:43:06.358Z,21.87
2018-08-18T15:45:47.187Z,21.91
2018-08-18T15:48:16.212Z,21.91
2018-08-18T15:50:45.188Z,21.91
2018-08-18T15:53:14.165Z,21.91
2018-08-18T15:55:43.297Z,21.89
2018-08-18T15:58:12.268Z,21.92
2018-08-18T16:00:42.145Z,21.93
2018-08-18T16:03:11.492Z,21.93
2018-08-18T16:05:40.454Z,21.98
2018-08-18T16:08:09.505Z,22.11
2018-08-18T16:10:38.548Z,22.20
2018-08-18T16:13:07.740Z,22.21
2018-08-18T16:15:36.890Z,22.20
2018-08-18T16:18:05.892Z,22.15
2018-08-18T16:20:34.869Z,22.19
2018-08-18T16:23:04.495Z,22.17
2018-08-18T16:25:37.672Z,22.16
2018-08-18T16:28:07.531Z,22.14
2018-08-18T16:30:37.108Z,22.21
2018-08-18T16:33:14.648Z,22.28
2018-08-18T16:35:44.827Z,22.27
2018-08-18T16:38:13.846Z,22.25
2018-08-18T16:40:43.033Z,22.26
2018-08-18T16:43:14.204Z,22.28
2018-08-18T16:45:43.215Z,22.33
2018-08-18T16:48:13.504Z,22.35
2018-08-18T16:50:43.096Z,22.32
2018-08-18T16:53:13.355Z,22.32
2018-08-18T16:55:45.404Z,22.31
2018-08-18T16:58:14.387Z,22.31
2018-08-18T17:00:57.880Z,22.22
2018-08-18T17:03:34.358Z,22.21
2018-08-18T17:06:05.289Z,22.16
2018-08-18T17:08:34.244Z,22.09
2018-08-18T17:11:03.192Z,22.04
2018-08-18T17:13:34.398Z,21.96
2018-08-18T17:16:03.839Z,21.89
2018-08-18T17:18:32.969Z,21.84
2018-08-18T17:21:03.105Z,21.74
2018-08-18T17:23:33.394Z,21.70
2018-08-18T17:26:02.504Z,21.66
2018-08-18T17:28:32.274Z,21.58
2018-08-18T17:31:02.738Z,21.57
2018-08-18T17:33:32.299Z,21.56
2018-08-18T17:36:01.321Z,21.56
2018-08-18T17:38:30.421Z,21.52
2018-08-18T17:40:59.378Z,21.57
2018-08-18T17:43:28.428Z,21.57
2018-08-18T17:45:58.603Z,21.60
2018-08-18T17:48:28.893Z,21.62
2018-08-18T17:50:57.892Z,21.58
2018-08-18T17:53:26.839Z,21.58
2018-08-18T17:56:00.933Z,21.60
2018-08-18T17:58:29.960Z,21.60
2018-08-18T18:00:59.025Z,21.59
2018-08-18T18:03:28.029Z,21.57
2018-08-18T18:05:57.588Z,21.49
2018-08-18T18:08:26.844Z,21.44
2018-08-18T18:10:55.840Z,21.41
2018-08-18T18:13:27.116Z,21.41
2018-08-18T18:15:56.197Z,21.39
2018-08-18T18:18:30.778Z,21.35
2018-08-18T18:20:59.857Z,21.31
2018-08-18T18:23:28.797Z,21.24
2018-08-18T18:25:57.861Z,21.20
2018-08-18T18:28:26.869Z,21.21
2018-08-18T18:30:55.862Z,21.24
2018-08-18T18:33:24.881Z,21.18
2018-08-18T18:35:53.814Z,21.14
2018-08-18T18:38:22.830Z,21.11
2018-08-18T18:40:51.820Z,21.08
2018-08-18T18:43:20.771Z,21.04
2018-08-18T18:45:49.828Z,21.01
2018-08-18T18:48:18.885Z,21.04
2018-08-18T18:50:49.233Z,21.06
2018-08-18T18:53:18.244Z,21.06
2018-08-18T18:55:54.696Z,21.03
2018-08-18T18:58:23.644Z,21.00
2018-08-18T19:01:01.442Z,20.96
2018-08-18T19:03:30.688Z,20.93
2018-08-18T19:05:59.696Z,20.91
2018-08-18T19:08:28.713Z,20.87
2018-08-18T19:10:57.789Z,20.87
2018-08-18T19:13:27.836Z,20.87
2018-08-18T19:15:56.790Z,20.86
2018-08-18T19:18:25.829Z,20.80
2018-08-18T19:20:54.873Z,20.78
2018-08-18T19:23:23.847Z,20.78
2018-08-18T19:25:52.881Z,20.75
2018-08-18T19:28:23.063Z,20.71
2018-08-18T19:30:52.153Z,20.66
2018-08-18T19:33:21.537Z,20.66
2018-08-18T19:35:51.936Z,20.63
2018-08-18T19:38:22.036Z,20.60
2018-08-18T19:40:54.027Z,20.59
2018-08-18T19:43:24.267Z,20.53
2018-08-18T19:45:53.752Z,20.51
2018-08-18T19:48:24.105Z,20.43
2018-08-18T19:50:58.171Z,20.41
2018-08-18T19:53:30.069Z,20.44
2018-08-18T19:56:00.028Z,20.40
2018-08-18T19:58:29.585Z,20.33
2018-08-18T20:00:58.596Z,20.29
2018-08-18T20:03:27.837Z,20.21
2018-08-18T20:05:56.785Z,20.19
2018-08-18T20:08:27.664Z,20.21
2018-08-18T20:11:02.974Z,20.24
2018-08-18T20:13:32.821Z,20.16
2018-08-18T20:16:03.188Z,20.10
2018-08-18T20:18:33.311Z,20.02
2018-08-18T20:21:02.313Z,19.92
2018-08-18T20:23:31.311Z,19.84
2018-08-18T20:26:01.673Z,19.81
2018-08-18T20:28:30.684Z,19.75
2018-08-18T20:30:59.711Z,19.75
2018-08-18T20:33:28.645Z,19.77
2018-08-18T20:35:57.710Z,19.71
2018-08-18T20:38:30.967Z,19.63
2018-08-18T20:40:59.976Z,19.64
2018-08-18T20:43:29.468Z,19.64
2018-08-18T20:45:58.434Z,19.66
2018-08-18T20:48:27.516Z,19.60
2018-08-18T20:50:56.453Z,19.57
2018-08-18T20:53:25.817Z,19.53
2018-08-18T20:55:59.660Z,19.55
2018-08-18T20:58:29.223Z,19.51
2018-08-18T21:00:58.153Z,19.59
2018-08-18T21:03:41.040Z,19.56
2018-08-18T21:06:10.097Z,19.52
2018-08-18T21:08:39.048Z,19.49
2018-08-18T21:11:08.069Z,19.48
2018-08-18T21:13:37.630Z,19.46
2018-08-18T21:16:06.780Z,19.42
2018-08-18T21:18:35.716Z,19.39
2018-08-18T21:21:38.840Z,19.34
2018-08-18T21:24:07.792Z,19.34
2018-08-18T21:26:36.845Z,19.33
2018-08-18T21:29:05.858Z,19.33
2018-08-18T21:31:36.165Z,19.36
2018-08-18T21:34:06.444Z,19.40
2018-08-18T21:36:35.672Z,19.44
2018-08-18T21:39:08.536Z,19.46
2018-08-18T21:41:38.409Z,19.44
2018-08-18T21:44:08.873Z,19.39
2018-08-18T21:46:38.259Z,19.36
2018-08-18T21:49:07.438Z,19.30
2018-08-18T21:51:36.444Z,19.29
2018-08-18T21:54:05.388Z,19.25
2018-08-18T21:56:40.648Z,19.22
2018-08-18T21:59:11.209Z,19.19
2018-08-18T22:01:40.184Z,19.12
2018-08-18T22:04:09.816Z,19.07
2018-08-18T22:06:39.108Z,19.07
2018-08-18T22:09:22.404Z,19.05
2018-08-18T22:11:51.660Z,19.05
2018-08-18T22:14:20.780Z,18.97
2018-08-18T22:16:55.761Z,18.87
2018-08-18T22:19:25.044Z,18.82
2018-08-18T22:21:54.260Z,18.80
2018-08-18T22:24:23.301Z,18.73
2018-08-18T22:26:52.319Z,18.67
2018-08-18T22:29:25.237Z,18.63
2018-08-18T22:31:54.441Z,18.56
2018-08-18T22:34:23.428Z,18.54
2018-08-18T22:36:58.851Z,18.53
2018-08-18T22:39:27.791Z,18.54
2018-08-18T22:41:56.730Z,18.56
2018-08-18T22:44:25.732Z,18.58
2018-08-18T22:46:54.793Z,18.59
2018-08-18T22:49:23.821Z,18.63
2018-08-18T22:51:52.817Z,18.65
2018-08-18T22:54:21.844Z,18.62
2018-08-18T22:56:55.978Z,18.56
2018-08-18T22:59:25.139Z,18.50
2018-08-18T23:01:54.095Z,18.49
2018-08-18T23:04:29.837Z,18.43
2018-08-18T23:06:59.477Z,18.38
2018-08-18T23:09:29.265Z,18.41
2018-08-18T23:12:02.816Z,18.42
2018-08-18T23:14:34.807Z,18.39
2018-08-18T23:17:04.067Z,18.38
2018-08-18T23:19:33.824Z,18.37
2018-08-18T23:22:03.440Z,18.32
2018-08-18T23:24:35.640Z,18.31
2018-08-18T23:27:05.796Z,18.31
2018-08-18T23:29:34.918Z,18.30
2018-08-18T23:32:13.440Z,18.31
2018-08-18T23:34:42.392Z,18.32
2018-08-18T23:37:17.401Z,18.32
2018-08-18T23:39:46.409Z,18.30
2018-08-18T23:42:18.116Z,18.29
2018-08-18T23:44:47.565Z,18.23
2018-08-18T23:47:16.669Z,18.22
2018-08-18T23:49:45.813Z,18.17
2018-08-18T23:52:14.810Z,18.17
2018-08-18T23:54:43.773Z,18.15
2018-08-18T23:57:13.203Z,18.13
2018-08-18T23:59:42.219Z,18.02
